sensor_id;sensor_type;location;lat;lon;timestamp;P1;durP1;ratioP1;P2;durP2;ratioP2
22318;SDS011;11327;52.334;9.506;2022-12-20T00:01:24;27.13;;;15.38;;
22318;SDS011;11327;52.334;9.506;2022-12-20T00:04:47;26.23;;;15.43;;
22318;SDS011;11327;52.334;9.506;2022-12-20T00:08:08;25.25;;;16.27;;
22318;SDS011;11327;52.334;9.506;2022-12-20T00:11:30;25.35;;;15.85;;
22318;SDS011;11327;52.334;9.506;2022-12-20T00:14:51;25.85;;;16.17;;
22318;SDS011;11327;52.334;9.506;2022-12-20T00:18:12;26.07;;;16.23;;
22318;SDS011;11327;52.334;9.506;2022-12-20T00:21:33;27.02;;;15.78;;
22318;SDS011;11327;52.334;9.506;2022-12-20T00:24:55;25.65;;;15.40;;
22318;SDS011;11327;52.334;9.506;2022-12-20T00:28:16;23.77;;;15.50;;
22318;SDS011;11327;52.334;9.506;2022-12-20T00:31:37;26.27;;;15.90;;
22318;SDS011;11327;52.334;9.506;2022-12-20T00:34:58;25.77;;;16.05;;
22318;SDS011;11327;52.334;9.506;2022-12-20T00:38:19;29.02;;;16.48;;
22318;SDS011;11327;52.334;9.506;2022-12-20T00:41:40;25.15;;;15.03;;
22318;SDS011;11327;52.334;9.506;2022-12-20T00:45:01;25.52;;;15.70;;
22318;SDS011;11327;52.334;9.506;2022-12-20T00:48:23;24.18;;;15.45;;
22318;SDS011;11327;52.334;9.506;2022-12-20T00:51:44;25.88;;;16.40;;
22318;SDS011;11327;52.334;9.506;2022-12-20T00:55:05;24.95;;;15.60;;
22318;SDS011;11327;52.334;9.506;2022-12-20T00:58:26;24.23;;;15.70;;
22318;SDS011;11327;52.334;9.506;2022-12-20T01:01:47;26.37;;;16.10;;
22318;SDS011;11327;52.334;9.506;2022-12-20T01:05:08;28.20;;;16.32;;
22318;SDS011;11327;52.334;9.506;2022-12-20T01:08:29;24.67;;;16.65;;
22318;SDS011;11327;52.334;9.506;2022-12-20T01:11:50;25.75;;;15.93;;
22318;SDS011;11327;52.334;9.506;2022-12-20T01:15:11;26.02;;;16.00;;
22318;SDS011;11327;52.334;9.506;2022-12-20T01:18:32;25.27;;;15.65;;
22318;SDS011;11327;52.334;9.506;2022-12-20T01:21:54;23.73;;;15.10;;
22318;SDS011;11327;52.334;9.506;2022-12-20T01:25:15;24.60;;;15.93;;
22318;SDS011;11327;52.334;9.506;2022-12-20T01:28:39;23.92;;;15.23;;
22318;SDS011;11327;52.334;9.506;2022-12-20T01:32:00;22.95;;;15.10;;
22318;SDS011;11327;52.334;9.506;2022-12-20T01:35:21;26.10;;;15.70;;
22318;SDS011;11327;52.334;9.506;2022-12-20T01:38:41;24.30;;;14.55;;
22318;SDS011;11327;52.334;9.506;2022-12-20T01:42:03;26.50;;;15.20;;
22318;SDS011;11327;52.334;9.506;2022-12-20T01:45:25;25.48;;;15.68;;
22318;SDS011;11327;52.334;9.506;2022-12-20T01:52:39;21.82;;;14.68;;
22318;SDS011;11327;52.334;9.506;2022-12-20T01:56:03;24.15;;;13.95;;
22318;SDS011;11327;52.334;9.506;2022-12-20T01:59:26;22.90;;;14.95;;
22318;SDS011;11327;52.334;9.506;2022-12-20T02:02:48;21.55;;;14.18;;
22318;SDS011;11327;52.334;9.506;2022-12-20T02:06:13;25.15;;;15.18;;
22318;SDS011;11327;52.334;9.506;2022-12-20T02:13:01;22.60;;;14.50;;
22318;SDS011;11327;52.334;9.506;2022-12-20T02:16:24;21.55;;;13.50;;
22318;SDS011;11327;52.334;9.506;2022-12-20T02:30:34;24.35;;;15.45;;
22318;SDS011;11327;52.334;9.506;2022-12-20T02:33:58;24.40;;;14.90;;
22318;SDS011;11327;52.334;9.506;2022-12-20T02:37:21;24.52;;;15.13;;
22318;SDS011;11327;52.334;9.506;2022-12-20T02:40:42;24.07;;;14.50;;
22318;SDS011;11327;52.334;9.506;2022-12-20T02:44:06;24.30;;;14.60;;
22318;SDS011;11327;52.334;9.506;2022-12-20T02:47:58;24.63;;;14.73;;
22318;SDS011;11327;52.334;9.506;2022-12-20T02:51:24;22.75;;;13.93;;
22318;SDS011;11327;52.334;9.506;2022-12-20T02:54:47;20.85;;;13.45;;
22318;SDS011;11327;52.334;9.506;2022-12-20T02:58:17;23.12;;;14.50;;
22318;SDS011;11327;52.334;9.506;2022-12-20T03:01:55;20.43;;;12.95;;
22318;SDS011;11327;52.334;9.506;2022-12-20T03:05:16;22.65;;;14.30;;
22318;SDS011;11327;52.334;9.506;2022-12-20T03:08:42;20.52;;;13.38;;
22318;SDS011;11327;52.334;9.506;2022-12-20T03:12:04;22.60;;;14.47;;
22318;SDS011;11327;52.334;9.506;2022-12-20T03:15:25;22.02;;;13.40;;
22318;SDS011;11327;52.334;9.506;2022-12-20T03:18:46;21.07;;;13.40;;
22318;SDS011;11327;52.334;9.506;2022-12-20T03:22:07;22.80;;;14.65;;
22318;SDS011;11327;52.334;9.506;2022-12-20T03:25:28;23.87;;;14.20;;
22318;SDS011;11327;52.334;9.506;2022-12-20T03:28:49;23.00;;;14.83;;
22318;SDS011;11327;52.334;9.506;2022-12-20T03:32:10;26.37;;;15.75;;
22318;SDS011;11327;52.334;9.506;2022-12-20T03:35:32;23.75;;;15.10;;
22318;SDS011;11327;52.334;9.506;2022-12-20T03:38:53;26.02;;;15.75;;
22318;SDS011;11327;52.334;9.506;2022-12-20T03:42:14;26.02;;;15.23;;
22318;SDS011;11327;52.334;9.506;2022-12-20T03:45:35;23.73;;;14.73;;
22318;SDS011;11327;52.334;9.506;2022-12-20T03:48:56;23.55;;;15.23;;
22318;SDS011;11327;52.334;9.506;2022-12-20T03:52:17;22.48;;;13.90;;
22318;SDS011;11327;52.334;9.506;2022-12-20T03:55:38;24.32;;;15.23;;
22318;SDS011;11327;52.334;9.506;2022-12-20T03:58:59;24.67;;;15.38;;
22318;SDS011;11327;52.334;9.506;2022-12-20T04:02:20;21.82;;;14.07;;
22318;SDS011;11327;52.334;9.506;2022-12-20T04:05:41;25.12;;;15.25;;
22318;SDS011;11327;52.334;9.506;2022-12-20T04:09:02;22.48;;;14.35;;
22318;SDS011;11327;52.334;9.506;2022-12-20T04:12:23;23.12;;;14.45;;
22318;SDS011;11327;52.334;9.506;2022-12-20T04:15:44;21.85;;;14.10;;
22318;SDS011;11327;52.334;9.506;2022-12-20T04:19:05;23.45;;;15.30;;
22318;SDS011;11327;52.334;9.506;2022-12-20T04:22:26;24.57;;;15.20;;
22318;SDS011;11327;52.334;9.506;2022-12-20T04:25:47;24.30;;;15.43;;
22318;SDS011;11327;52.334;9.506;2022-12-20T04:29:08;24.85;;;15.98;;
22318;SDS011;11327;52.334;9.506;2022-12-20T04:32:29;23.07;;;14.87;;
22318;SDS011;11327;52.334;9.506;2022-12-20T04:35:50;25.48;;;15.40;;
22318;SDS011;11327;52.334;9.506;2022-12-20T04:39:12;25.45;;;15.68;;
22318;SDS011;11327;52.334;9.506;2022-12-20T04:42:33;23.35;;;15.20;;
22318;SDS011;11327;52.334;9.506;2022-12-20T04:45:54;22.13;;;14.43;;
22318;SDS011;11327;52.334;9.506;2022-12-20T04:49:16;22.35;;;14.28;;
22318;SDS011;11327;52.334;9.506;2022-12-20T04:52:37;23.57;;;14.90;;
22318;SDS011;11327;52.334;9.506;2022-12-20T04:56:18;22.55;;;15.60;;
22318;SDS011;11327;52.334;9.506;2022-12-20T04:59:41;24.82;;;16.02;;
22318;SDS011;11327;52.334;9.506;2022-12-20T05:03:02;22.77;;;15.43;;
22318;SDS011;11327;52.334;9.506;2022-12-20T05:06:23;23.42;;;15.35;;
22318;SDS011;11327;52.334;9.506;2022-12-20T05:09:44;22.32;;;15.75;;
22318;SDS011;11327;52.334;9.506;2022-12-20T05:13:05;23.65;;;15.32;;
22318;SDS011;11327;52.334;9.506;2022-12-20T05:16:26;23.42;;;15.95;;
22318;SDS011;11327;52.334;9.506;2022-12-20T05:19:47;25.02;;;17.05;;
22318;SDS011;11327;52.334;9.506;2022-12-20T05:23:08;25.17;;;16.37;;
22318;SDS011;11327;52.334;9.506;2022-12-20T05:26:48;25.40;;;16.02;;
22318;SDS011;11327;52.334;9.506;2022-12-20T05:30:09;29.05;;;18.15;;
22318;SDS011;11327;52.334;9.506;2022-12-20T05:33:31;25.70;;;16.30;;
22318;SDS011;11327;52.334;9.506;2022-12-20T05:36:52;26.23;;;16.45;;
22318;SDS011;11327;52.334;9.506;2022-12-20T05:40:13;25.15;;;16.77;;
22318;SDS011;11327;52.334;9.506;2022-12-20T05:43:35;26.57;;;16.60;;
22318;SDS011;11327;52.334;9.506;2022-12-20T05:46:56;27.62;;;17.55;;
22318;SDS011;11327;52.334;9.506;2022-12-20T05:50:17;25.77;;;17.02;;
22318;SDS011;11327;52.334;9.506;2022-12-20T05:53:38;26.73;;;17.02;;
22318;SDS011;11327;52.334;9.506;2022-12-20T05:56:59;27.73;;;17.37;;
22318;SDS011;11327;52.334;9.506;2022-12-20T06:00:20;29.18;;;17.30;;
22318;SDS011;11327;52.334;9.506;2022-12-20T06:03:41;27.75;;;17.07;;
22318;SDS011;11327;52.334;9.506;2022-12-20T06:07:02;27.22;;;17.05;;
22318;SDS011;11327;52.334;9.506;2022-12-20T06:10:24;25.85;;;16.93;;
22318;SDS011;11327;52.334;9.506;2022-12-20T06:13:46;25.50;;;17.15;;
22318;SDS011;11327;52.334;9.506;2022-12-20T06:17:07;25.02;;;16.73;;
22318;SDS011;11327;52.334;9.506;2022-12-20T06:20:28;25.40;;;16.60;;
22318;SDS011;11327;52.334;9.506;2022-12-20T06:23:49;26.35;;;16.23;;
22318;SDS011;11327;52.334;9.506;2022-12-20T06:27:10;25.30;;;16.80;;
22318;SDS011;11327;52.334;9.506;2022-12-20T06:30:31;26.93;;;17.07;;
22318;SDS011;11327;52.334;9.506;2022-12-20T06:33:52;25.37;;;16.77;;
22318;SDS011;11327;52.334;9.506;2022-12-20T06:37:13;28.40;;;17.73;;
22318;SDS011;11327;52.334;9.506;2022-12-20T06:40:34;25.77;;;17.02;;
22318;SDS011;11327;52.334;9.506;2022-12-20T06:43:55;27.27;;;17.25;;
22318;SDS011;11327;52.334;9.506;2022-12-20T06:47:16;27.67;;;17.17;;
22318;SDS011;11327;52.334;9.506;2022-12-20T06:50:37;26.73;;;17.77;;
22318;SDS011;11327;52.334;9.506;2022-12-20T06:53:58;25.02;;;16.65;;
22318;SDS011;11327;52.334;9.506;2022-12-20T06:57:19;22.80;;;15.90;;
22318;SDS011;11327;52.334;9.506;2022-12-20T07:00:41;24.23;;;15.95;;
22318;SDS011;11327;52.334;9.506;2022-12-20T07:04:02;25.08;;;16.97;;
22318;SDS011;11327;52.334;9.506;2022-12-20T07:07:23;24.60;;;16.45;;
22318;SDS011;11327;52.334;9.506;2022-12-20T07:10:44;22.67;;;15.75;;
22318;SDS011;11327;52.334;9.506;2022-12-20T07:14:05;26.05;;;16.02;;
22318;SDS011;11327;52.334;9.506;2022-12-20T07:17:26;24.67;;;16.20;;
22318;SDS011;11327;52.334;9.506;2022-12-20T07:20:47;23.87;;;16.17;;
22318;SDS011;11327;52.334;9.506;2022-12-20T07:24:08;24.30;;;15.83;;
22318;SDS011;11327;52.334;9.506;2022-12-20T07:27:29;21.95;;;15.25;;
22318;SDS011;11327;52.334;9.506;2022-12-20T07:30:50;40.23;;;21.50;;
22318;SDS011;11327;52.334;9.506;2022-12-20T07:34:11;24.40;;;15.70;;
22318;SDS011;11327;52.334;9.506;2022-12-20T07:37:32;22.25;;;15.25;;
22318;SDS011;11327;52.334;9.506;2022-12-20T07:40:53;21.50;;;14.63;;
22318;SDS011;11327;52.334;9.506;2022-12-20T07:44:14;23.73;;;15.50;;
22318;SDS011;11327;52.334;9.506;2022-12-20T07:47:35;22.15;;;15.03;;
22318;SDS011;11327;52.334;9.506;2022-12-20T07:51:00;25.17;;;15.45;;
22318;SDS011;11327;52.334;9.506;2022-12-20T07:54:26;22.93;;;15.72;;
22318;SDS011;11327;52.334;9.506;2022-12-20T07:57:48;22.02;;;14.10;;
22318;SDS011;11327;52.334;9.506;2022-12-20T08:01:12;21.48;;;14.30;;
22318;SDS011;11327;52.334;9.506;2022-12-20T08:04:33;22.22;;;15.28;;
22318;SDS011;11327;52.334;9.506;2022-12-20T08:07:54;24.95;;;16.07;;
22318;SDS011;11327;52.334;9.506;2022-12-20T08:11:18;23.87;;;15.05;;
22318;SDS011;11327;52.334;9.506;2022-12-20T08:14:40;24.23;;;15.00;;
22318;SDS011;11327;52.334;9.506;2022-12-20T08:18:01;25.95;;;16.77;;
22318;SDS011;11327;52.334;9.506;2022-12-20T08:21:22;23.47;;;15.40;;
22318;SDS011;11327;52.334;9.506;2022-12-20T08:24:43;21.37;;;14.85;;
22318;SDS011;11327;52.334;9.506;2022-12-20T08:28:05;23.83;;;15.18;;
22318;SDS011;11327;52.334;9.506;2022-12-20T08:31:26;23.35;;;15.78;;
22318;SDS011;11327;52.334;9.506;2022-12-20T08:34:47;21.85;;;14.55;;
22318;SDS011;11327;52.334;9.506;2022-12-20T08:38:08;21.87;;;14.65;;
22318;SDS011;11327;52.334;9.506;2022-12-20T08:41:29;22.93;;;14.70;;
22318;SDS011;11327;52.334;9.506;2022-12-20T08:44:51;21.20;;;13.95;;
22318;SDS011;11327;52.334;9.506;2022-12-20T08:48:12;22.13;;;14.95;;
22318;SDS011;11327;52.334;9.506;2022-12-20T08:51:33;20.45;;;14.00;;
22318;SDS011;11327;52.334;9.506;2022-12-20T08:54:54;22.58;;;14.60;;
22318;SDS011;11327;52.334;9.506;2022-12-20T08:58:15;18.95;;;13.83;;
22318;SDS011;11327;52.334;9.506;2022-12-20T09:01:36;20.57;;;13.50;;
22318;SDS011;11327;52.334;9.506;2022-12-20T09:04:57;20.17;;;12.70;;
22318;SDS011;11327;52.334;9.506;2022-12-20T09:08:18;19.95;;;13.45;;
22318;SDS011;11327;52.334;9.506;2022-12-20T09:11:39;20.08;;;13.03;;
22318;SDS011;11327;52.334;9.506;2022-12-20T09:15:00;21.05;;;13.05;;
22318;SDS011;11327;52.334;9.506;2022-12-20T09:18:21;18.98;;;12.50;;
22318;SDS011;11327;52.334;9.506;2022-12-20T09:21:42;17.30;;;11.95;;
22318;SDS011;11327;52.334;9.506;2022-12-20T09:25:03;18.65;;;12.63;;
22318;SDS011;11327;52.334;9.506;2022-12-20T09:28:26;17.02;;;11.73;;
22318;SDS011;11327;52.334;9.506;2022-12-20T09:31:47;17.85;;;12.15;;
22318;SDS011;11327;52.334;9.506;2022-12-20T09:35:08;18.73;;;12.30;;
22318;SDS011;11327;52.334;9.506;2022-12-20T09:38:30;18.17;;;11.97;;
22318;SDS011;11327;52.334;9.506;2022-12-20T09:41:51;18.62;;;12.13;;
22318;SDS011;11327;52.334;9.506;2022-12-20T09:45:15;22.70;;;13.85;;
22318;SDS011;11327;52.334;9.506;2022-12-20T09:48:37;17.60;;;11.60;;
22318;SDS011;11327;52.334;9.506;2022-12-20T09:59:20;15.68;;;11.05;;
22318;SDS011;11327;52.334;9.506;2022-12-20T10:02:41;15.00;;;10.40;;
22318;SDS011;11327;52.334;9.506;2022-12-20T10:17:19;12.50;;;8.73;;
22318;SDS011;11327;52.334;9.506;2022-12-20T10:24:29;11.90;;;8.45;;
22318;SDS011;11327;52.334;9.506;2022-12-20T10:27:52;12.03;;;8.13;;
22318;SDS011;11327;52.334;9.506;2022-12-20T10:31:16;11.88;;;8.18;;
22318;SDS011;11327;52.334;9.506;2022-12-20T10:34:39;12.00;;;7.42;;
22318;SDS011;11327;52.334;9.506;2022-12-20T10:38:13;10.68;;;7.87;;
22318;SDS011;11327;52.334;9.506;2022-12-20T10:45:20;11.00;;;7.42;;
22318;SDS011;11327;52.334;9.506;2022-12-20T10:51:54;9.15;;;6.67;;
22318;SDS011;11327;52.334;9.506;2022-12-20T11:02:27;10.95;;;7.45;;
22318;SDS011;11327;52.334;9.506;2022-12-20T11:12:56;11.90;;;7.67;;
22318;SDS011;11327;52.334;9.506;2022-12-20T11:27:11;10.03;;;6.47;;
22318;SDS011;11327;52.334;9.506;2022-12-20T11:34:33;9.95;;;6.42;;
22318;SDS011;11327;52.334;9.506;2022-12-20T11:38:29;8.93;;;5.85;;
22318;SDS011;11327;52.334;9.506;2022-12-20T11:41:58;8.60;;;6.03;;
22318;SDS011;11327;52.334;9.506;2022-12-20T11:46:07;8.08;;;5.53;;
22318;SDS011;11327;52.334;9.506;2022-12-20T11:52:38;10.58;;;6.47;;
22318;SDS011;11327;52.334;9.506;2022-12-20T11:56:01;8.23;;;6.08;;
22318;SDS011;11327;52.334;9.506;2022-12-20T12:03:18;7.42;;;5.75;;
22318;SDS011;11327;52.334;9.506;2022-12-20T12:06:46;8.28;;;5.87;;
22318;SDS011;11327;52.334;9.506;2022-12-20T12:10:19;8.38;;;6.05;;
22318;SDS011;11327;52.334;9.506;2022-12-20T12:13:46;8.45;;;5.97;;
22318;SDS011;11327;52.334;9.506;2022-12-20T12:17:10;8.45;;;6.20;;
22318;SDS011;11327;52.334;9.506;2022-12-20T12:20:55;9.95;;;6.25;;
22318;SDS011;11327;52.334;9.506;2022-12-20T12:27:42;8.50;;;6.00;;
22318;SDS011;11327;52.334;9.506;2022-12-20T12:31:06;9.53;;;6.42;;
22318;SDS011;11327;52.334;9.506;2022-12-20T12:45:20;8.63;;;6.30;;
22318;SDS011;11327;52.334;9.506;2022-12-20T12:48:47;8.63;;;6.10;;
22318;SDS011;11327;52.334;9.506;2022-12-20T12:52:33;7.87;;;6.00;;
22318;SDS011;11327;52.334;9.506;2022-12-20T12:55:50;8.08;;;6.10;;
22318;SDS011;11327;52.334;9.506;2022-12-20T13:02:49;8.30;;;5.90;;
22318;SDS011;11327;52.334;9.506;2022-12-20T13:09:48;9.30;;;5.75;;
22318;SDS011;11327;52.334;9.506;2022-12-20T13:13:12;9.23;;;6.17;;
22318;SDS011;11327;52.334;9.506;2022-12-20T13:16:35;9.70;;;6.20;;
22318;SDS011;11327;52.334;9.506;2022-12-20T13:19:58;9.60;;;6.37;;
22318;SDS011;11327;52.334;9.506;2022-12-20T13:23:19;9.40;;;6.72;;
22318;SDS011;11327;52.334;9.506;2022-12-20T13:26:41;8.65;;;6.35;;
22318;SDS011;11327;52.334;9.506;2022-12-20T13:33:46;9.70;;;6.47;;
22318;SDS011;11327;52.334;9.506;2022-12-20T13:37:28;9.28;;;6.22;;
22318;SDS011;11327;52.334;9.506;2022-12-20T13:44:56;9.18;;;6.25;;
22318;SDS011;11327;52.334;9.506;2022-12-20T13:48:24;11.20;;;7.90;;
22318;SDS011;11327;52.334;9.506;2022-12-20T13:51:49;10.15;;;6.45;;
22318;SDS011;11327;52.334;9.506;2022-12-20T13:55:33;9.40;;;6.40;;
22318;SDS011;11327;52.334;9.506;2022-12-20T13:58:57;8.68;;;6.00;;
22318;SDS011;11327;52.334;9.506;2022-12-20T14:02:21;8.53;;;6.08;;
22318;SDS011;11327;52.334;9.506;2022-12-20T14:05:44;12.03;;;6.65;;
22318;SDS011;11327;52.334;9.506;2022-12-20T14:09:24;8.95;;;6.17;;
22318;SDS011;11327;52.334;9.506;2022-12-20T14:12:30;8.50;;;6.15;;
22318;SDS011;11327;52.334;9.506;2022-12-20T14:15:51;10.05;;;6.53;;
22318;SDS011;11327;52.334;9.506;2022-12-20T14:19:13;9.55;;;7.00;;
22318;SDS011;11327;52.334;9.506;2022-12-20T14:22:35;8.15;;;6.10;;
22318;SDS011;11327;52.334;9.506;2022-12-20T14:25:56;9.25;;;6.62;;
22318;SDS011;11327;52.334;9.506;2022-12-20T14:29:23;9.35;;;6.53;;
22318;SDS011;11327;52.334;9.506;2022-12-20T14:32:47;9.45;;;6.60;;
22318;SDS011;11327;52.334;9.506;2022-12-20T14:36:15;9.83;;;6.47;;
22318;SDS011;11327;52.334;9.506;2022-12-20T14:39:52;7.53;;;5.90;;
22318;SDS011;11327;52.334;9.506;2022-12-20T14:43:13;8.15;;;5.83;;
22318;SDS011;11327;52.334;9.506;2022-12-20T14:46:36;7.58;;;6.12;;
22318;SDS011;11327;52.334;9.506;2022-12-20T14:49:58;8.58;;;6.28;;
22318;SDS011;11327;52.334;9.506;2022-12-20T14:53:43;8.75;;;6.28;;
22318;SDS011;11327;52.334;9.506;2022-12-20T14:57:09;8.53;;;5.65;;
22318;SDS011;11327;52.334;9.506;2022-12-20T15:00:30;9.23;;;6.10;;
22318;SDS011;11327;52.334;9.506;2022-12-20T15:03:55;8.38;;;5.65;;
22318;SDS011;11327;52.334;9.506;2022-12-20T15:07:28;8.90;;;5.85;;
22318;SDS011;11327;52.334;9.506;2022-12-20T15:17:56;10.40;;;6.75;;
22318;SDS011;11327;52.334;9.506;2022-12-20T15:21:21;10.98;;;6.97;;
22318;SDS011;11327;52.334;9.506;2022-12-20T15:24:50;8.28;;;6.30;;
22318;SDS011;11327;52.334;9.506;2022-12-20T15:28:16;15.05;;;9.98;;
22318;SDS011;11327;52.334;9.506;2022-12-20T15:31:35;9.50;;;6.70;;
22318;SDS011;11327;52.334;9.506;2022-12-20T15:34:56;8.70;;;6.47;;
22318;SDS011;11327;52.334;9.506;2022-12-20T15:38:22;12.80;;;9.00;;
22318;SDS011;11327;52.334;9.506;2022-12-20T15:41:45;16.42;;;12.40;;
22318;SDS011;11327;52.334;9.506;2022-12-20T15:45:14;14.47;;;10.23;;
22318;SDS011;11327;52.334;9.506;2022-12-20T15:48:35;9.25;;;6.85;;
22318;SDS011;11327;52.334;9.506;2022-12-20T15:51:56;8.73;;;5.80;;
22318;SDS011;11327;52.334;9.506;2022-12-20T15:55:17;9.73;;;8.08;;
22318;SDS011;11327;52.334;9.506;2022-12-20T15:58:38;8.45;;;6.62;;
22318;SDS011;11327;52.334;9.506;2022-12-20T16:02:00;8.25;;;5.75;;
22318;SDS011;11327;52.334;9.506;2022-12-20T16:05:21;8.45;;;6.42;;
22318;SDS011;11327;52.334;9.506;2022-12-20T16:08:42;9.85;;;6.72;;
22318;SDS011;11327;52.334;9.506;2022-12-20T16:12:03;8.83;;;6.00;;
22318;SDS011;11327;52.334;9.506;2022-12-20T16:15:24;8.25;;;6.40;;
22318;SDS011;11327;52.334;9.506;2022-12-20T16:18:45;7.92;;;5.42;;
22318;SDS011;11327;52.334;9.506;2022-12-20T16:22:14;9.90;;;7.25;;
22318;SDS011;11327;52.334;9.506;2022-12-20T16:25:36;9.15;;;6.17;;
22318;SDS011;11327;52.334;9.506;2022-12-20T16:28:57;8.28;;;6.33;;
22318;SDS011;11327;52.334;9.506;2022-12-20T16:32:18;9.73;;;6.67;;
22318;SDS011;11327;52.334;9.506;2022-12-20T16:35:43;8.93;;;6.70;;
22318;SDS011;11327;52.334;9.506;2022-12-20T16:39:05;10.65;;;7.58;;
22318;SDS011;11327;52.334;9.506;2022-12-20T16:42:26;10.00;;;8.00;;
22318;SDS011;11327;52.334;9.506;2022-12-20T16:45:46;10.55;;;7.55;;
22318;SDS011;11327;52.334;9.506;2022-12-20T16:49:09;12.45;;;10.85;;
22318;SDS011;11327;52.334;9.506;2022-12-20T16:52:31;11.93;;;10.72;;
22318;SDS011;11327;52.334;9.506;2022-12-20T16:55:53;10.10;;;8.43;;
22318;SDS011;11327;52.334;9.506;2022-12-20T16:59:14;8.93;;;7.03;;
22318;SDS011;11327;52.334;9.506;2022-12-20T17:02:35;10.45;;;7.50;;
22318;SDS011;11327;52.334;9.506;2022-12-20T17:05:56;9.83;;;7.15;;
22318;SDS011;11327;52.334;9.506;2022-12-20T17:09:18;10.95;;;8.65;;
22318;SDS011;11327;52.334;9.506;2022-12-20T17:12:39;9.73;;;6.60;;
22318;SDS011;11327;52.334;9.506;2022-12-20T17:16:00;10.10;;;8.70;;
22318;SDS011;11327;52.334;9.506;2022-12-20T17:19:21;9.50;;;6.90;;
22318;SDS011;11327;52.334;9.506;2022-12-20T17:22:42;9.50;;;7.40;;
22318;SDS011;11327;52.334;9.506;2022-12-20T17:26:04;10.82;;;7.47;;
22318;SDS011;11327;52.334;9.506;2022-12-20T17:29:25;11.38;;;8.10;;
22318;SDS011;11327;52.334;9.506;2022-12-20T17:32:46;11.20;;;8.08;;
22318;SDS011;11327;52.334;9.506;2022-12-20T17:36:07;10.28;;;7.60;;
22318;SDS011;11327;52.334;9.506;2022-12-20T17:39:29;11.78;;;8.23;;
22318;SDS011;11327;52.334;9.506;2022-12-20T17:42:50;8.60;;;6.60;;
22318;SDS011;11327;52.334;9.506;2022-12-20T17:46:11;10.82;;;7.28;;
22318;SDS011;11327;52.334;9.506;2022-12-20T17:49:33;9.50;;;7.87;;
22318;SDS011;11327;52.334;9.506;2022-12-20T17:52:54;9.18;;;7.62;;
22318;SDS011;11327;52.334;9.506;2022-12-20T17:56:21;10.35;;;7.80;;
22318;SDS011;11327;52.334;9.506;2022-12-20T17:59:45;9.48;;;7.87;;
22318;SDS011;11327;52.334;9.506;2022-12-20T18:03:07;12.63;;;8.33;;
22318;SDS011;11327;52.334;9.506;2022-12-20T18:06:29;12.30;;;8.30;;
22318;SDS011;11327;52.334;9.506;2022-12-20T18:09:51;20.50;;;13.90;;
22318;SDS011;11327;52.334;9.506;2022-12-20T18:13:12;17.87;;;11.85;;
22318;SDS011;11327;52.334;9.506;2022-12-20T18:16:33;12.90;;;9.98;;
22318;SDS011;11327;52.334;9.506;2022-12-20T18:19:54;14.55;;;10.00;;
22318;SDS011;11327;52.334;9.506;2022-12-20T18:23:15;13.70;;;10.43;;
22318;SDS011;11327;52.334;9.506;2022-12-20T18:26:36;13.48;;;9.48;;
22318;SDS011;11327;52.334;9.506;2022-12-20T18:29:57;13.35;;;10.30;;
22318;SDS011;11327;52.334;9.506;2022-12-20T18:33:18;12.82;;;9.48;;
22318;SDS011;11327;52.334;9.506;2022-12-20T18:36:39;14.55;;;10.35;;
22318;SDS011;11327;52.334;9.506;2022-12-20T18:40:00;14.60;;;9.95;;
22318;SDS011;11327;52.334;9.506;2022-12-20T18:43:23;11.53;;;8.88;;
22318;SDS011;11327;52.334;9.506;2022-12-20T18:46:44;14.05;;;9.13;;
22318;SDS011;11327;52.334;9.506;2022-12-20T18:50:05;12.13;;;9.15;;
22318;SDS011;11327;52.334;9.506;2022-12-20T18:53:28;12.50;;;8.90;;
22318;SDS011;11327;52.334;9.506;2022-12-20T18:56:50;10.48;;;8.48;;
22318;SDS011;11327;52.334;9.506;2022-12-20T19:00:12;11.97;;;9.18;;
22318;SDS011;11327;52.334;9.506;2022-12-20T19:03:34;13.38;;;9.60;;
22318;SDS011;11327;52.334;9.506;2022-12-20T19:06:55;13.60;;;9.68;;
22318;SDS011;11327;52.334;9.506;2022-12-20T19:10:16;13.38;;;9.23;;
22318;SDS011;11327;52.334;9.506;2022-12-20T19:13:37;14.15;;;9.25;;
22318;SDS011;11327;52.334;9.506;2022-12-20T19:16:58;12.15;;;8.90;;
22318;SDS011;11327;52.334;9.506;2022-12-20T19:20:19;12.88;;;9.50;;
22318;SDS011;11327;52.334;9.506;2022-12-20T19:23:41;14.93;;;9.45;;
22318;SDS011;11327;52.334;9.506;2022-12-20T19:27:04;13.43;;;9.08;;
22318;SDS011;11327;52.334;9.506;2022-12-20T19:30:27;11.65;;;9.30;;
22318;SDS011;11327;52.334;9.506;2022-12-20T19:33:48;12.85;;;10.00;;
22318;SDS011;11327;52.334;9.506;2022-12-20T19:37:11;13.95;;;9.63;;
22318;SDS011;11327;52.334;9.506;2022-12-20T19:40:33;14.10;;;9.70;;
22318;SDS011;11327;52.334;9.506;2022-12-20T19:43:54;16.10;;;10.23;;
22318;SDS011;11327;52.334;9.506;2022-12-20T19:47:16;14.40;;;10.60;;
22318;SDS011;11327;52.334;9.506;2022-12-20T19:50:37;15.00;;;10.43;;
22318;SDS011;11327;52.334;9.506;2022-12-20T19:53:58;14.25;;;10.80;;
22318;SDS011;11327;52.334;9.506;2022-12-20T19:57:19;13.98;;;10.10;;
22318;SDS011;11327;52.334;9.506;2022-12-20T20:00:40;14.60;;;10.93;;
22318;SDS011;11327;52.334;9.506;2022-12-20T20:04:03;13.40;;;10.28;;
22318;SDS011;11327;52.334;9.506;2022-12-20T20:07:25;12.35;;;9.50;;
22318;SDS011;11327;52.334;9.506;2022-12-20T20:10:51;13.78;;;10.48;;
22318;SDS011;11327;52.334;9.506;2022-12-20T20:14:13;13.70;;;9.40;;
22318;SDS011;11327;52.334;9.506;2022-12-20T20:17:34;14.87;;;10.48;;
22318;SDS011;11327;52.334;9.506;2022-12-20T20:20:55;14.35;;;10.38;;
22318;SDS011;11327;52.334;9.506;2022-12-20T20:24:16;14.45;;;10.28;;
22318;SDS011;11327;52.334;9.506;2022-12-20T20:27:38;13.45;;;10.05;;
22318;SDS011;11327;52.334;9.506;2022-12-20T20:30:59;13.03;;;10.00;;
22318;SDS011;11327;52.334;9.506;2022-12-20T20:34:21;13.60;;;9.30;;
22318;SDS011;11327;52.334;9.506;2022-12-20T20:37:42;13.13;;;9.65;;
22318;SDS011;11327;52.334;9.506;2022-12-20T20:41:03;12.45;;;9.33;;
22318;SDS011;11327;52.334;9.506;2022-12-20T20:44:24;15.63;;;10.40;;
22318;SDS011;11327;52.334;9.506;2022-12-20T20:47:45;14.53;;;9.98;;
22318;SDS011;11327;52.334;9.506;2022-12-20T20:51:06;12.30;;;9.58;;
22318;SDS011;11327;52.334;9.506;2022-12-20T20:54:27;13.48;;;10.15;;
22318;SDS011;11327;52.334;9.506;2022-12-20T20:57:48;13.08;;;10.08;;
22318;SDS011;11327;52.334;9.506;2022-12-20T21:01:09;12.40;;;9.53;;
22318;SDS011;11327;52.334;9.506;2022-12-20T21:04:31;13.13;;;10.08;;
22318;SDS011;11327;52.334;9.506;2022-12-20T21:07:52;15.50;;;10.95;;
22318;SDS011;11327;52.334;9.506;2022-12-20T21:11:13;14.70;;;11.00;;
22318;SDS011;11327;52.334;9.506;2022-12-20T21:14:34;13.13;;;9.75;;
22318;SDS011;11327;52.334;9.506;2022-12-20T21:17:55;14.10;;;9.78;;
22318;SDS011;11327;52.334;9.506;2022-12-20T21:21:16;12.68;;;9.93;;
22318;SDS011;11327;52.334;9.506;2022-12-20T21:24:37;14.15;;;9.85;;
22318;SDS011;11327;52.334;9.506;2022-12-20T21:27:58;12.95;;;9.55;;
22318;SDS011;11327;52.334;9.506;2022-12-20T21:31:19;12.82;;;9.68;;
22318;SDS011;11327;52.334;9.506;2022-12-20T21:34:40;13.75;;;9.75;;
22318;SDS011;11327;52.334;9.506;2022-12-20T21:38:01;14.95;;;10.43;;
22318;SDS011;11327;52.334;9.506;2022-12-20T21:41:23;13.18;;;9.65;;
22318;SDS011;11327;52.334;9.506;2022-12-20T21:44:46;13.93;;;9.60;;
22318;SDS011;11327;52.334;9.506;2022-12-20T21:48:07;13.43;;;9.28;;
22318;SDS011;11327;52.334;9.506;2022-12-20T21:51:29;15.03;;;10.55;;
22318;SDS011;11327;52.334;9.506;2022-12-20T21:54:50;13.38;;;9.60;;
22318;SDS011;11327;52.334;9.506;2022-12-20T21:58:11;13.60;;;9.68;;